sensor_id;sensor_type;location;lat;lon;timestamp;P1;durP1;ratioP1;P2;durP2;ratioP2
2035;SDS011;23642;42.658;23.350;2022-10-12T00:01:40;94.00;;;86.90;;
2035;SDS011;23642;42.658;23.350;2022-10-12T00:04:09;95.10;;;87.50;;
2035;SDS011;23642;42.658;23.350;2022-10-12T00:06:52;92.93;;;85.90;;
2035;SDS011;23642;42.658;23.350;2022-10-12T00:09:30;92.53;;;85.67;;
2035;SDS011;23642;42.658;23.350;2022-10-12T00:12:02;95.37;;;88.27;;
2035;SDS011;23642;42.658;23.350;2022-10-12T00:14:35;96.17;;;88.83;;
2035;SDS011;23642;42.658;23.350;2022-10-12T00:17:26;97.07;;;89.97;;
2035;SDS011;23642;42.658;23.350;2022-10-12T00:20:05;92.50;;;85.60;;
2035;SDS011;23642;42.658;23.350;2022-10-12T00:24:51;90.27;;;83.00;;
2035;SDS011;23642;42.658;23.350;2022-10-12T00:26:00;94.73;;;87.63;;
2035;SDS011;23642;42.658;23.350;2022-10-12T00:28:38;94.30;;;87.50;;
2035;SDS011;23642;42.658;23.350;2022-10-12T00:31:12;97.83;;;90.17;;
2035;SDS011;23642;42.658;23.350;2022-10-12T00:33:49;94.70;;;88.00;;
2035;SDS011;23642;42.658;23.350;2022-10-12T00:36:24;98.43;;;91.37;;
2035;SDS011;23642;42.658;23.350;2022-10-12T00:38:59;95.20;;;88.10;;
2035;SDS011;23642;42.658;23.350;2022-10-12T00:41:30;98.43;;;91.07;;
2035;SDS011;23642;42.658;23.350;2022-10-12T00:43:59;96.40;;;89.20;;
2035;SDS011;23642;42.658;23.350;2022-10-12T00:46:36;94.47;;;87.47;;
2035;SDS011;23642;42.658;23.350;2022-10-12T00:49:33;93.40;;;86.50;;
2035;SDS011;23642;42.658;23.350;2022-10-12T00:52:10;94.83;;;87.93;;
2035;SDS011;23642;42.658;23.350;2022-10-12T00:54:51;96.07;;;89.13;;
2035;SDS011;23642;42.658;23.350;2022-10-12T00:57:29;92.50;;;85.70;;
2035;SDS011;23642;42.658;23.350;2022-10-12T01:00:03;93.73;;;86.93;;
2035;SDS011;23642;42.658;23.350;2022-10-12T01:02:42;94.10;;;86.90;;
2035;SDS011;23642;42.658;23.350;2022-10-12T01:05:15;94.40;;;87.60;;
2035;SDS011;23642;42.658;23.350;2022-10-12T01:07:48;95.40;;;88.53;;
2035;SDS011;23642;42.658;23.350;2022-10-12T01:10:32;94.20;;;87.50;;
2035;SDS011;23642;42.658;23.350;2022-10-12T01:12:59;93.07;;;86.37;;
2035;SDS011;23642;42.658;23.350;2022-10-12T01:15:32;89.67;;;82.93;;
2035;SDS011;23642;42.658;23.350;2022-10-12T01:18:15;93.23;;;86.27;;
2035;SDS011;23642;42.658;23.350;2022-10-12T01:21:02;88.60;;;82.00;;
2035;SDS011;23642;42.658;23.350;2022-10-12T01:23:51;91.63;;;85.10;;
2035;SDS011;23642;42.658;23.350;2022-10-12T01:26:49;97.07;;;89.90;;
2035;SDS011;23642;42.658;23.350;2022-10-12T01:32:58;93.40;;;86.60;;
2035;SDS011;23642;42.658;23.350;2022-10-12T01:35:45;90.50;;;84.10;;
2035;SDS011;23642;42.658;23.350;2022-10-12T01:39:01;90.87;;;84.43;;
2035;SDS011;23642;42.658;23.350;2022-10-12T01:41:38;92.27;;;85.67;;
2035;SDS011;23642;42.658;23.350;2022-10-12T01:44:18;95.17;;;88.37;;
2035;SDS011;23642;42.658;23.350;2022-10-12T01:46:48;92.53;;;86.03;;
2035;SDS011;23642;42.658;23.350;2022-10-12T01:49:17;92.93;;;85.97;;
2035;SDS011;23642;42.658;23.350;2022-10-12T01:51:52;92.03;;;85.53;;
2035;SDS011;23642;42.658;23.350;2022-10-12T01:54:37;95.07;;;88.47;;
2035;SDS011;23642;42.658;23.350;2022-10-12T01:57:17;95.90;;;89.17;;
2035;SDS011;23642;42.658;23.350;2022-10-12T01:59:51;90.43;;;83.83;;
2035;SDS011;23642;42.658;23.350;2022-10-12T02:02:24;93.20;;;86.60;;
2035;SDS011;23642;42.658;23.350;2022-10-12T02:04:59;90.30;;;83.97;;
2035;SDS011;23642;42.658;23.350;2022-10-12T02:07:34;91.10;;;84.47;;
2035;SDS011;23642;42.658;23.350;2022-10-12T02:10:08;93.53;;;87.03;;
2035;SDS011;23642;42.658;23.350;2022-10-12T02:12:49;94.50;;;87.57;;
2035;SDS011;23642;42.658;23.350;2022-10-12T02:15:18;95.43;;;88.57;;
2035;SDS011;23642;42.658;23.350;2022-10-12T02:17:49;91.80;;;85.13;;
2035;SDS011;23642;42.658;23.350;2022-10-12T02:20:21;94.80;;;88.20;;
2035;SDS011;23642;42.658;23.350;2022-10-12T02:22:50;93.63;;;86.93;;
2035;SDS011;23642;42.658;23.350;2022-10-12T02:25:23;94.50;;;87.70;;
2035;SDS011;23642;42.658;23.350;2022-10-12T02:27:53;94.97;;;88.07;;
2035;SDS011;23642;42.658;23.350;2022-10-12T02:30:25;91.80;;;85.13;;
2035;SDS011;23642;42.658;23.350;2022-10-12T02:32:53;92.53;;;85.37;;
2035;SDS011;23642;42.658;23.350;2022-10-12T02:35:28;91.00;;;84.40;;
2035;SDS011;23642;42.658;23.350;2022-10-12T02:38:01;92.43;;;85.97;;
2035;SDS011;23642;42.658;23.350;2022-10-12T02:40:33;94.60;;;87.57;;
2035;SDS011;23642;42.658;23.350;2022-10-12T02:43:07;94.60;;;87.80;;
2035;SDS011;23642;42.658;23.350;2022-10-12T02:45:45;94.93;;;88.00;;
2035;SDS011;23642;42.658;23.350;2022-10-12T02:48:58;90.67;;;84.17;;
2035;SDS011;23642;42.658;23.350;2022-10-12T02:54:57;93.57;;;86.70;;
2035;SDS011;23642;42.658;23.350;2022-10-12T02:57:27;91.30;;;84.60;;
2035;SDS011;23642;42.658;23.350;2022-10-12T03:03:36;91.83;;;85.23;;
2035;SDS011;23642;42.658;23.350;2022-10-12T03:07:04;92.07;;;85.27;;
2035;SDS011;23642;42.658;23.350;2022-10-12T03:13:07;94.00;;;86.60;;
2035;SDS011;23642;42.658;23.350;2022-10-12T03:15:35;96.70;;;89.10;;
2035;SDS011;23642;42.658;23.350;2022-10-12T03:18:03;98.83;;;91.20;;
2035;SDS011;23642;42.658;23.350;2022-10-12T03:20:33;95.50;;;87.90;;
2035;SDS011;23642;42.658;23.350;2022-10-12T03:23:07;93.33;;;86.30;;
2035;SDS011;23642;42.658;23.350;2022-10-12T03:26:00;90.13;;;83.20;;
2035;SDS011;23642;42.658;23.350;2022-10-12T03:29:05;92.90;;;85.30;;
2035;SDS011;23642;42.658;23.350;2022-10-12T03:31:54;95.00;;;87.80;;
2035;SDS011;23642;42.658;23.350;2022-10-12T03:34:29;93.57;;;86.47;;
2035;SDS011;23642;42.658;23.350;2022-10-12T03:37:07;93.37;;;86.13;;
2035;SDS011;23642;42.658;23.350;2022-10-12T03:40:14;91.13;;;83.90;;
2035;SDS011;23642;42.658;23.350;2022-10-12T03:42:54;90.33;;;83.63;;
2035;SDS011;23642;42.658;23.350;2022-10-12T03:48:19;95.30;;;87.67;;
2035;SDS011;23642;42.658;23.350;2022-10-12T03:50:49;93.53;;;86.43;;
2035;SDS011;23642;42.658;23.350;2022-10-12T03:53:25;90.67;;;83.77;;
2035;SDS011;23642;42.658;23.350;2022-10-12T03:59:29;90.37;;;83.37;;
2035;SDS011;23642;42.658;23.350;2022-10-12T04:02:57;93.10;;;86.03;;
2035;SDS011;23642;42.658;23.350;2022-10-12T04:09:09;99.63;;;91.50;;
2035;SDS011;23642;42.658;23.350;2022-10-12T04:11:53;102.03;;;93.60;;
2035;SDS011;23642;42.658;23.350;2022-10-12T04:14:26;103.83;;;94.73;;
2035;SDS011;23642;42.658;23.350;2022-10-12T04:17:16;100.83;;;92.57;;
2035;SDS011;23642;42.658;23.350;2022-10-12T04:20:05;100.23;;;91.93;;
2035;SDS011;23642;42.658;23.350;2022-10-12T04:22:46;103.60;;;94.90;;
2035;SDS011;23642;42.658;23.350;2022-10-12T04:25:16;102.20;;;93.73;;
2035;SDS011;23642;42.658;23.350;2022-10-12T04:27:46;97.90;;;90.10;;
2035;SDS011;23642;42.658;23.350;2022-10-12T04:30:16;96.20;;;88.50;;
2035;SDS011;23642;42.658;23.350;2022-10-12T04:32:55;93.53;;;86.30;;
2035;SDS011;23642;42.658;23.350;2022-10-12T04:35:26;91.70;;;84.63;;
2035;SDS011;23642;42.658;23.350;2022-10-12T04:38:01;92.53;;;85.53;;
2035;SDS011;23642;42.658;23.350;2022-10-12T04:40:29;96.23;;;88.13;;
2035;SDS011;23642;42.658;23.350;2022-10-12T04:43:16;99.50;;;91.20;;
2035;SDS011;23642;42.658;23.350;2022-10-12T04:45:52;92.73;;;85.93;;
2035;SDS011;23642;42.658;23.350;2022-10-12T04:48:24;95.20;;;87.20;;
2035;SDS011;23642;42.658;23.350;2022-10-12T04:50:53;94.40;;;86.10;;
2035;SDS011;23642;42.658;23.350;2022-10-12T04:53:52;93.37;;;85.83;;
2035;SDS011;23642;42.658;23.350;2022-10-12T04:56:47;93.03;;;86.13;;
2035;SDS011;23642;42.658;23.350;2022-10-12T04:59:39;93.17;;;86.07;;
2035;SDS011;23642;42.658;23.350;2022-10-12T05:06:08;96.30;;;88.87;;
2035;SDS011;23642;42.658;23.350;2022-10-12T05:09:44;96.63;;;89.10;;
2035;SDS011;23642;42.658;23.350;2022-10-12T05:12:58;99.37;;;91.07;;
2035;SDS011;23642;42.658;23.350;2022-10-12T05:22:39;99.20;;;90.50;;
2035;SDS011;23642;42.658;23.350;2022-10-12T05:28:03;97.73;;;89.63;;
2035;SDS011;23642;42.658;23.350;2022-10-12T05:30:31;90.83;;;83.37;;
2035;SDS011;23642;42.658;23.350;2022-10-12T05:32:59;92.03;;;84.63;;
2035;SDS011;23642;42.658;23.350;2022-10-12T05:35:31;92.23;;;85.17;;
2035;SDS011;23642;42.658;23.350;2022-10-12T05:38:05;90.47;;;83.37;;
2035;SDS011;23642;42.658;23.350;2022-10-12T05:40:33;92.27;;;85.33;;
2035;SDS011;23642;42.658;23.350;2022-10-12T05:43:41;90.53;;;83.50;;
2035;SDS011;23642;42.658;23.350;2022-10-12T05:46:24;92.27;;;84.37;;
2035;SDS011;23642;42.658;23.350;2022-10-12T05:52:29;88.83;;;82.03;;
2035;SDS011;23642;42.658;23.350;2022-10-12T05:55:07;92.20;;;85.47;;
2035;SDS011;23642;42.658;23.350;2022-10-12T05:57:35;91.03;;;84.00;;
2035;SDS011;23642;42.658;23.350;2022-10-12T06:00:03;93.60;;;86.40;;
2035;SDS011;23642;42.658;23.350;2022-10-12T06:02:32;90.93;;;83.90;;
2035;SDS011;23642;42.658;23.350;2022-10-12T06:05:10;92.53;;;85.60;;
2035;SDS011;23642;42.658;23.350;2022-10-12T06:07:37;91.03;;;84.00;;
2035;SDS011;23642;42.658;23.350;2022-10-12T06:10:04;92.47;;;85.40;;
2035;SDS011;23642;42.658;23.350;2022-10-12T06:12:37;96.63;;;88.20;;
2035;SDS011;23642;42.658;23.350;2022-10-12T06:15:08;94.37;;;86.77;;
2035;SDS011;23642;42.658;23.350;2022-10-12T06:17:35;95.57;;;87.80;;
2035;SDS011;23642;42.658;23.350;2022-10-12T06:20:06;97.40;;;89.67;;
2035;SDS011;23642;42.658;23.350;2022-10-12T06:22:43;93.40;;;86.07;;
2035;SDS011;23642;42.658;23.350;2022-10-12T06:25:27;97.57;;;89.83;;
2035;SDS011;23642;42.658;23.350;2022-10-12T06:28:08;97.73;;;90.00;;
2035;SDS011;23642;42.658;23.350;2022-10-12T06:30:54;92.07;;;85.20;;
2035;SDS011;23642;42.658;23.350;2022-10-12T06:33:23;94.73;;;87.47;;
2035;SDS011;23642;42.658;23.350;2022-10-12T06:35:59;100.20;;;92.13;;
2035;SDS011;23642;42.658;23.350;2022-10-12T06:38:50;96.40;;;88.90;;
2035;SDS011;23642;42.658;23.350;2022-10-12T06:41:37;98.10;;;89.80;;
2035;SDS011;23642;42.658;23.350;2022-10-12T06:44:12;96.13;;;88.77;;
2035;SDS011;23642;42.658;23.350;2022-10-12T06:46:59;97.43;;;89.97;;
2035;SDS011;23642;42.658;23.350;2022-10-12T06:53:16;98.57;;;90.87;;
2035;SDS011;23642;42.658;23.350;2022-10-12T06:55:46;100.37;;;91.50;;
2035;SDS011;23642;42.658;23.350;2022-10-12T06:58:21;99.97;;;91.90;;
2035;SDS011;23642;42.658;23.350;2022-10-12T07:01:05;100.37;;;92.77;;
2035;SDS011;23642;42.658;23.350;2022-10-12T07:03:37;99.93;;;92.30;;
2035;SDS011;23642;42.658;23.350;2022-10-12T07:09:08;102.10;;;94.20;;
2035;SDS011;23642;42.658;23.350;2022-10-12T07:11:49;102.13;;;94.33;;
2035;SDS011;23642;42.658;23.350;2022-10-12T07:14:48;103.63;;;95.13;;
2035;SDS011;23642;42.658;23.350;2022-10-12T07:17:31;106.70;;;97.73;;
2035;SDS011;23642;42.658;23.350;2022-10-12T07:20:02;104.10;;;96.40;;
2035;SDS011;23642;42.658;23.350;2022-10-12T07:22:33;107.83;;;99.23;;
2035;SDS011;23642;42.658;23.350;2022-10-12T07:25:10;106.13;;;97.97;;
2035;SDS011;23642;42.658;23.350;2022-10-12T07:27:46;107.67;;;99.27;;
2035;SDS011;23642;42.658;23.350;2022-10-12T07:34:07;109.00;;;100.80;;
2035;SDS011;23642;42.658;23.350;2022-10-12T07:36:58;109.10;;;100.20;;
2035;SDS011;23642;42.658;23.350;2022-10-12T07:39:32;110.97;;;102.27;;
2035;SDS011;23642;42.658;23.350;2022-10-12T07:42:26;113.43;;;104.23;;
2035;SDS011;23642;42.658;23.350;2022-10-12T07:45:26;114.17;;;105.40;;
2035;SDS011;23642;42.658;23.350;2022-10-12T07:48:06;110.50;;;102.33;;
2035;SDS011;23642;42.658;23.350;2022-10-12T07:57:56;112.77;;;103.87;;
2035;SDS011;23642;42.658;23.350;2022-10-12T08:00:37;111.23;;;102.40;;
2035;SDS011;23642;42.658;23.350;2022-10-12T08:06:44;111.23;;;102.90;;
2035;SDS011;23642;42.658;23.350;2022-10-12T08:09:30;114.70;;;106.00;;
2035;SDS011;23642;42.658;23.350;2022-10-12T08:12:12;113.47;;;104.70;;
2035;SDS011;23642;42.658;23.350;2022-10-12T08:14:47;112.67;;;103.50;;
2035;SDS011;23642;42.658;23.350;2022-10-12T08:17:17;110.37;;;102.00;;
2035;SDS011;23642;42.658;23.350;2022-10-12T08:19:54;114.53;;;104.80;;
2035;SDS011;23642;42.658;23.350;2022-10-12T08:22:31;111.20;;;102.33;;
2035;SDS011;23642;42.658;23.350;2022-10-12T08:25:05;109.83;;;101.63;;
2035;SDS011;23642;42.658;23.350;2022-10-12T08:27:44;109.37;;;101.27;;
2035;SDS011;23642;42.658;23.350;2022-10-12T08:30:20;107.60;;;99.67;;
2035;SDS011;23642;42.658;23.350;2022-10-12T08:32:53;111.17;;;101.97;;
2035;SDS011;23642;42.658;23.350;2022-10-12T08:36:29;106.83;;;98.73;;
2035;SDS011;23642;42.658;23.350;2022-10-12T08:41:58;111.27;;;102.07;;
2035;SDS011;23642;42.658;23.350;2022-10-12T08:44:48;108.50;;;100.10;;
2035;SDS011;23642;42.658;23.350;2022-10-12T08:47:33;104.87;;;96.87;;
2035;SDS011;23642;42.658;23.350;2022-10-12T08:50:06;103.70;;;96.10;;
2035;SDS011;23642;42.658;23.350;2022-10-12T08:52:50;105.80;;;97.10;;
2035;SDS011;23642;42.658;23.350;2022-10-12T09:01:49;102.23;;;94.50;;
2035;SDS011;23642;42.658;23.350;2022-10-12T09:03:10;104.77;;;96.87;;
2035;SDS011;23642;42.658;23.350;2022-10-12T09:05:59;104.80;;;97.30;;
2035;SDS011;23642;42.658;23.350;2022-10-12T09:08:44;103.53;;;96.00;;
2035;SDS011;23642;42.658;23.350;2022-10-12T09:11:26;101.27;;;93.83;;
2035;SDS011;23642;42.658;23.350;2022-10-12T09:14:12;101.90;;;94.23;;
2035;SDS011;23642;42.658;23.350;2022-10-12T09:16:56;103.20;;;95.37;;
2035;SDS011;23642;42.658;23.350;2022-10-12T09:19:40;102.30;;;94.67;;
2035;SDS011;23642;42.658;23.350;2022-10-12T09:22:12;102.97;;;95.43;;
2035;SDS011;23642;42.658;23.350;2022-10-12T09:24:58;103.97;;;95.70;;
2035;SDS011;23642;42.658;23.350;2022-10-12T09:27:28;103.20;;;95.30;;
2035;SDS011;23642;42.658;23.350;2022-10-12T09:30:00;101.00;;;93.50;;
2035;SDS011;23642;42.658;23.350;2022-10-12T09:32:33;103.60;;;96.13;;
2035;SDS011;23642;42.658;23.350;2022-10-12T09:35:28;104.10;;;96.60;;
2035;SDS011;23642;42.658;23.350;2022-10-12T09:38:08;104.87;;;97.30;;
2035;SDS011;23642;42.658;23.350;2022-10-12T09:40:54;103.83;;;96.33;;
2035;SDS011;23642;42.658;23.350;2022-10-12T09:43:42;101.80;;;94.40;;
2035;SDS011;23642;42.658;23.350;2022-10-12T09:49:20;105.30;;;97.60;;
2035;SDS011;23642;42.658;23.350;2022-10-12T09:58:59;104.40;;;97.10;;
2035;SDS011;23642;42.658;23.350;2022-10-12T10:01:57;107.33;;;99.53;;
2035;SDS011;23642;42.658;23.350;2022-10-12T10:04:30;105.37;;;97.93;;
2035;SDS011;23642;42.658;23.350;2022-10-12T10:07:13;106.43;;;99.03;;
2035;SDS011;23642;42.658;23.350;2022-10-12T10:10:03;104.37;;;96.50;;
2035;SDS011;23642;42.658;23.350;2022-10-12T10:12:59;103.47;;;95.70;;
2035;SDS011;23642;42.658;23.350;2022-10-12T10:15:30;103.77;;;96.57;;
2035;SDS011;23642;42.658;23.350;2022-10-12T10:18:18;102.70;;;95.53;;
2035;SDS011;23642;42.658;23.350;2022-10-12T10:20:53;105.07;;;97.47;;
2035;SDS011;23642;42.658;23.350;2022-10-12T10:23:30;104.00;;;96.60;;
2035;SDS011;23642;42.658;23.350;2022-10-12T10:26:11;105.73;;;98.63;;
2035;SDS011;23642;42.658;23.350;2022-10-12T10:28:44;105.03;;;97.60;;
2035;SDS011;23642;42.658;23.350;2022-10-12T10:31:23;107.70;;;100.10;;
2035;SDS011;23642;42.658;23.350;2022-10-12T10:34:09;102.47;;;95.27;;
2035;SDS011;23642;42.658;23.350;2022-10-12T10:36:42;103.67;;;96.30;;
2035;SDS011;23642;42.658;23.350;2022-10-12T10:39:17;106.63;;;99.27;;
2035;SDS011;23642;42.658;23.350;2022-10-12T10:41:47;107.53;;;99.93;;
2035;SDS011;23642;42.658;23.350;2022-10-12T10:44:28;104.57;;;96.77;;
2035;SDS011;23642;42.658;23.350;2022-10-12T10:47:00;105.13;;;98.00;;
2035;SDS011;23642;42.658;23.350;2022-10-12T10:49:37;102.03;;;95.03;;
2035;SDS011;23642;42.658;23.350;2022-10-12T10:52:06;106.10;;;98.93;;
2035;SDS011;23642;42.658;23.350;2022-10-12T10:54:44;103.40;;;95.93;;
2035;SDS011;23642;42.658;23.350;2022-10-12T10:57:14;102.60;;;95.30;;
2035;SDS011;23642;42.658;23.350;2022-10-12T11:00:17;107.30;;;99.60;;
2035;SDS011;23642;42.658;23.350;2022-10-12T11:02:55;103.17;;;95.63;;
2035;SDS011;23642;42.658;23.350;2022-10-12T11:05:24;105.90;;;98.60;;
2035;SDS011;23642;42.658;23.350;2022-10-12T11:08:00;102.50;;;95.40;;
2035;SDS011;23642;42.658;23.350;2022-10-12T11:10:49;106.00;;;98.60;;
2035;SDS011;23642;42.658;23.350;2022-10-12T11:16:35;105.33;;;98.10;;
2035;SDS011;23642;42.658;23.350;2022-10-12T11:19:22;106.30;;;99.20;;
2035;SDS011;23642;42.658;23.350;2022-10-12T11:21:56;106.63;;;99.13;;
2035;SDS011;23642;42.658;23.350;2022-10-12T11:24:30;106.03;;;98.70;;
2035;SDS011;23642;42.658;23.350;2022-10-12T11:27:02;106.80;;;99.10;;
2035;SDS011;23642;42.658;23.350;2022-10-12T11:29:50;106.27;;;98.97;;
2035;SDS011;23642;42.658;23.350;2022-10-12T11:32:42;105.93;;;98.47;;
2035;SDS011;23642;42.658;23.350;2022-10-12T11:35:24;109.20;;;101.50;;
2035;SDS011;23642;42.658;23.350;2022-10-12T11:38:02;109.47;;;101.33;;
2035;SDS011;23642;42.658;23.350;2022-10-12T11:40:49;106.47;;;99.10;;
2035;SDS011;23642;42.658;23.350;2022-10-12T11:43:35;110.77;;;102.67;;
2035;SDS011;23642;42.658;23.350;2022-10-12T11:46:26;106.97;;;99.53;;
2035;SDS011;23642;42.658;23.350;2022-10-12T11:49:13;110.07;;;102.23;;
2035;SDS011;23642;42.658;23.350;2022-10-12T11:51:46;109.07;;;101.07;;
2035;SDS011;23642;42.658;23.350;2022-10-12T11:54:20;112.23;;;104.53;;
2035;SDS011;23642;42.658;23.350;2022-10-12T11:57:14;108.70;;;101.00;;
2035;SDS011;23642;42.658;23.350;2022-10-12T11:59:46;111.00;;;103.10;;
2035;SDS011;23642;42.658;23.350;2022-10-12T12:02:30;109.53;;;102.10;;
2035;SDS011;23642;42.658;23.350;2022-10-12T12:08:33;115.20;;;107.10;;
2035;SDS011;23642;42.658;23.350;2022-10-12T12:15:04;113.00;;;104.50;;
2035;SDS011;23642;42.658;23.350;2022-10-12T12:17:35;112.83;;;104.90;;
2035;SDS011;23642;42.658;23.350;2022-10-12T12:23:32;113.87;;;105.93;;
2035;SDS011;23642;42.658;23.350;2022-10-12T12:26:12;114.67;;;106.80;;
2035;SDS011;23642;42.658;23.350;2022-10-12T12:30:27;109.43;;;101.83;;
2035;SDS011;23642;42.658;23.350;2022-10-12T12:32:05;111.87;;;103.93;;
2035;SDS011;23642;42.658;23.350;2022-10-12T12:34:46;112.30;;;104.40;;
2035;SDS011;23642;42.658;23.350;2022-10-12T12:44:42;111.97;;;103.93;;
2035;SDS011;23642;42.658;23.350;2022-10-12T12:47:20;108.80;;;100.67;;
2035;SDS011;23642;42.658;23.350;2022-10-12T12:50:25;112.17;;;104.37;;
2035;SDS011;23642;42.658;23.350;2022-10-12T12:53:06;111.13;;;103.57;;
2035;SDS011;23642;42.658;23.350;2022-10-12T12:55:54;111.57;;;103.77;;
2035;SDS011;23642;42.658;23.350;2022-10-12T13:01:47;109.77;;;102.17;;
2035;SDS011;23642;42.658;23.350;2022-10-12T13:05:06;109.87;;;102.30;;
2035;SDS011;23642;42.658;23.350;2022-10-12T13:07:56;110.10;;;102.10;;
2035;SDS011;23642;42.658;23.350;2022-10-12T13:10:59;109.57;;;102.07;;
2035;SDS011;23642;42.658;23.350;2022-10-12T13:20:34;109.83;;;101.93;;
2035;SDS011;23642;42.658;23.350;2022-10-12T13:26:44;110.30;;;102.50;;
2035;SDS011;23642;42.658;23.350;2022-10-12T13:52:53;109.10;;;101.40;;
2035;SDS011;23642;42.658;23.350;2022-10-12T13:58:29;108.53;;;101.03;;
2035;SDS011;23642;42.658;23.350;2022-10-12T14:01:14;110.87;;;102.93;;
2035;SDS011;23642;42.658;23.350;2022-10-12T14:10:50;112.73;;;104.73;;
2035;SDS011;23642;42.658;23.350;2022-10-12T14:13:45;112.27;;;104.27;;
2035;SDS011;23642;42.658;23.350;2022-10-12T14:32:40;110.97;;;103.17;;
2035;SDS011;23642;42.658;23.350;2022-10-12T14:35:22;114.43;;;106.33;;
2035;SDS011;23642;42.658;23.350;2022-10-12T14:37:52;111.70;;;103.40;;
2035;SDS011;23642;42.658;23.350;2022-10-12T14:43:06;109.07;;;101.40;;
2035;SDS011;23642;42.658;23.350;2022-10-12T14:45:48;109.63;;;101.53;;
2035;SDS011;23642;42.658;23.350;2022-10-12T14:48:18;111.90;;;104.00;;
2035;SDS011;23642;42.658;23.350;2022-10-12T14:50:47;112.83;;;104.73;;
2035;SDS011;23642;42.658;23.350;2022-10-12T14:53:15;108.90;;;101.30;;
2035;SDS011;23642;42.658;23.350;2022-10-12T14:55:53;113.97;;;105.57;;
2035;SDS011;23642;42.658;23.350;2022-10-12T14:58:20;110.30;;;102.50;;
2035;SDS011;23642;42.658;23.350;2022-10-12T15:00:50;111.07;;;103.07;;
2035;SDS011;23642;42.658;23.350;2022-10-12T15:03:18;112.37;;;103.87;;
2035;SDS011;23642;42.658;23.350;2022-10-12T15:05:46;111.47;;;103.27;;
2035;SDS011;23642;42.658;23.350;2022-10-12T15:11:11;110.97;;;102.70;;
2035;SDS011;23642;42.658;23.350;2022-10-12T15:13:38;111.73;;;103.63;;
2035;SDS011;23642;42.658;23.350;2022-10-12T15:16:09;108.90;;;100.83;;
2035;SDS011;23642;42.658;23.350;2022-10-12T15:18:45;111.03;;;102.77;;
2035;SDS011;23642;42.658;23.350;2022-10-12T15:21:12;108.27;;;100.53;;
2035;SDS011;23642;42.658;23.350;2022-10-12T15:23:39;107.57;;;99.63;;
2035;SDS011;23642;42.658;23.350;2022-10-12T15:26:15;107.07;;;99.37;;
2035;SDS011;23642;42.658;23.350;2022-10-12T15:28:43;111.23;;;103.10;;
2035;SDS011;23642;42.658;23.350;2022-10-12T15:31:13;110.90;;;102.50;;
2035;SDS011;23642;42.658;23.350;2022-10-12T15:33:41;112.07;;;103.50;;
2035;SDS011;23642;42.658;23.350;2022-10-12T15:36:10;110.13;;;101.93;;
2035;SDS011;23642;42.658;23.350;2022-10-12T15:38:39;106.10;;;98.43;;
2035;SDS011;23642;42.658;23.350;2022-10-12T15:41:08;109.27;;;100.83;;
2035;SDS011;23642;42.658;23.350;2022-10-12T15:43:42;112.80;;;104.40;;
2035;SDS011;23642;42.658;23.350;2022-10-12T15:46:09;112.33;;;103.40;;
2035;SDS011;23642;42.658;23.350;2022-10-12T15:48:37;109.63;;;101.07;;
2035;SDS011;23642;42.658;23.350;2022-10-12T15:51:05;110.80;;;102.27;;
2035;SDS011;23642;42.658;23.350;2022-10-12T15:53:41;106.50;;;98.03;;
2035;SDS011;23642;42.658;23.350;2022-10-12T15:56:09;112.37;;;103.57;;
2035;SDS011;23642;42.658;23.350;2022-10-12T15:58:39;109.27;;;101.00;;
2035;SDS011;23642;42.658;23.350;2022-10-12T16:01:06;112.37;;;103.90;;
2035;SDS011;23642;42.658;23.350;2022-10-12T16:03:37;107.43;;;99.33;;
2035;SDS011;23642;42.658;23.350;2022-10-12T16:06:04;111.27;;;102.40;;
2035;SDS011;23642;42.658;23.350;2022-10-12T16:08:32;109.30;;;101.40;;
2035;SDS011;23642;42.658;23.350;2022-10-12T16:11:02;108.33;;;100.27;;
2035;SDS011;23642;42.658;23.350;2022-10-12T16:13:30;110.10;;;101.57;;
2035;SDS011;23642;42.658;23.350;2022-10-12T16:15:58;106.90;;;98.73;;
2035;SDS011;23642;42.658;23.350;2022-10-12T16:18:26;108.63;;;100.43;;
2035;SDS011;23642;42.658;23.350;2022-10-12T16:20:53;109.23;;;101.00;;
2035;SDS011;23642;42.658;23.350;2022-10-12T16:23:23;108.80;;;100.80;;
2035;SDS011;23642;42.658;23.350;2022-10-12T16:25:52;107.30;;;98.90;;
2035;SDS011;23642;42.658;23.350;2022-10-12T16:28:22;108.60;;;100.73;;
2035;SDS011;23642;42.658;23.350;2022-10-12T16:30:49;110.23;;;101.47;;
2035;SDS011;23642;42.658;23.350;2022-10-12T16:33:17;107.07;;;98.83;;
2035;SDS011;23642;42.658;23.350;2022-10-12T16:35:44;104.57;;;96.30;;
2035;SDS011;23642;42.658;23.350;2022-10-12T16:38:14;108.57;;;100.27;;
2035;SDS011;23642;42.658;23.350;2022-10-12T16:40:43;106.80;;;98.90;;
2035;SDS011;23642;42.658;23.350;2022-10-12T16:43:12;108.40;;;99.73;;
2035;SDS011;23642;42.658;23.350;2022-10-12T16:45:43;108.80;;;100.17;;
2035;SDS011;23642;42.658;23.350;2022-10-12T16:48:11;106.23;;;98.50;;
2035;SDS011;23642;42.658;23.350;2022-10-12T16:50:38;107.13;;;98.90;;
2035;SDS011;23642;42.658;23.350;2022-10-12T16:53:05;104.60;;;96.70;;
2035;SDS011;23642;42.658;23.350;2022-10-12T16:55:35;106.47;;;98.10;;
2035;SDS011;23642;42.658;23.350;2022-10-12T16:58:24;104.33;;;96.47;;
2035;SDS011;23642;42.658;23.350;2022-10-12T17:01:05;104.93;;;96.07;;
2035;SDS011;23642;42.658;23.350;2022-10-12T17:03:44;103.23;;;95.77;;
2035;SDS011;23642;42.658;23.350;2022-10-12T17:06:14;104.17;;;96.30;;
2035;SDS011;23642;42.658;23.350;2022-10-12T17:08:53;103.97;;;96.10;;
2035;SDS011;23642;42.658;23.350;2022-10-12T17:11:23;103.30;;;95.40;;
2035;SDS011;23642;42.658;23.350;2022-10-12T17:14:01;102.07;;;94.40;;
2035;SDS011;23642;42.658;23.350;2022-10-12T17:16:45;104.67;;;96.43;;
2035;SDS011;23642;42.658;23.350;2022-10-12T17:19:27;105.50;;;96.87;;
2035;SDS011;23642;42.658;23.350;2022-10-12T17:22:00;102.27;;;94.10;;
2035;SDS011;23642;42.658;23.350;2022-10-12T17:24:51;103.13;;;94.70;;
2035;SDS011;23642;42.658;23.350;2022-10-12T17:27:39;103.77;;;95.67;;
2035;SDS011;23642;42.658;23.350;2022-10-12T17:30:11;103.67;;;95.17;;
2035;SDS011;23642;42.658;23.350;2022-10-12T17:32:52;102.70;;;94.67;;
2035;SDS011;23642;42.658;23.350;2022-10-12T17:35:34;102.40;;;94.87;;
2035;SDS011;23642;42.658;23.350;2022-10-12T17:38:10;105.50;;;97.40;;
2035;SDS011;23642;42.658;23.350;2022-10-12T17:40:48;103.07;;;95.13;;
2035;SDS011;23642;42.658;23.350;2022-10-12T17:49:49;104.00;;;95.60;;
2035;SDS011;23642;42.658;23.350;2022-10-12T17:52:24;104.70;;;96.30;;
2035;SDS011;23642;42.658;23.350;2022-10-12T17:54:54;108.77;;;99.50;;
2035;SDS011;23642;42.658;23.350;2022-10-12T17:57:38;105.43;;;97.17;;
2035;SDS011;23642;42.658;23.350;2022-10-12T18:00:09;106.20;;;97.90;;
2035;SDS011;23642;42.658;23.350;2022-10-12T18:02:39;106.87;;;97.50;;
2035;SDS011;23642;42.658;23.350;2022-10-12T18:05:10;105.50;;;97.20;;
2035;SDS011;23642;42.658;23.350;2022-10-12T18:07:43;105.67;;;97.40;;
2035;SDS011;23642;42.658;23.350;2022-10-12T18:10:29;108.40;;;98.67;;
2035;SDS011;23642;42.658;23.350;2022-10-12T18:13:12;106.80;;;97.70;;